• Join FlightAware (Why Join?)
  • Login
  • US Flag 
10:03AM EST


 

Airport Tracker/Info


-or-


 

Live Flight TrackerFlight Track Log ✈ DAL695 ✈ 15-Jun-2013 ✈ KJFK - KMCO

Flight Track Log - Related Links

Times and Time Zones

All times are in EDT time to prevent confusion due to time zone crossing. See the DAL695 flight status page for this flight to view local times or setup timezone preferences in your user account.

Time Position Orientation Groundspeed Altitude Reporting Facility
EDT Latitude Longitude Course Direction KTS MPH feet Rate Location/Type
11:16AM 40.6447 -73.8425 220° Southwest 192 221 1,800  Level New York Center
11:17AM 40.5983 -73.8650 200° South 204 235 3,900 2,220 Climbing New York Center
11:18AM 40.5564 -73.7867 125° Southeast 184 212 6,300 2,100 Climbing New York Center
11:19AM 40.2177 -73.3694 146° Southeast  Level FlightAware Approximate
11:19AM 40.5169 -73.7086 124° Southeast 250 288 8,200  Level New York Center
11:20AM 40.1082 -73.2721 146° Southeast  Level FlightAware Approximate
11:20AM 40.4481 -73.6239 137° Southeast 303 349 10,500  Level New York Center
11:21AM 40.0080 -73.3404 223° Southwest  Level FlightAware Approximate
11:21AM 40.3769 -73.5500 142° Southeast 351 404 11,800  Level New York Center
11:22AM 39.9062 -73.4508 220° Southwest  Level FlightAware Approximate
11:22AM 40.2833 -73.4483 140° Southeast 398 458 13,800  Level New York Center
11:23AM 40.1892 -73.3767 150° Southeast 424 488 15,800 2,040 Climbing New York Center
11:24AM 40.0564 -73.3553 173° South 427 491 17,900 1,680 Climbing New York Center
11:26AM 39.8292 -73.4219 193° South 437 503 21,000 1,560 Climbing Washington Center
11:27AM 39.7439 -73.5458 228° Southwest 430 495 22,600 1,560 Climbing Washington Center
11:28AM 39.6564 -73.6697 227° Southwest 443 510 24,100 1,560 Climbing Washington Center
11:29AM 39.5728 -73.7958 229° Southwest 455 524 25,800 1,740 Climbing Washington Center
11:30AM 39.4872 -73.9164 227° Southwest 460 529 27,600 1,500 Climbing Washington Center
11:31AM 39.3992 -74.0364 227° Southwest 465 535 28,800 1,140 Climbing Washington Center
11:32AM 39.2983 -74.1486 221° Southwest 470 541 30,000 1,140 Climbing Washington Center
11:33AM 39.2017 -74.2525 220° Southwest 475 547 31,200 960 Climbing Washington Center
11:34AM 39.0986 -74.3639 220° Southwest 475 547 32,000 360 Climbing Washington Center
11:35AM 39.0017 -74.4697 220° Southwest 475 547 32,000 -60 Level Washington Center
11:36AM 38.9006 -74.5753 219° Southwest 475 547 31,900  Descending Washington Center
11:37AM 38.8033 -74.6833 221° Southwest 475 547 32,000  Climbing Washington Center
11:38AM 38.7042 -74.7856 219° Southwest 475 547 32,000  Level Washington Center
11:39AM 38.6047 -74.8931 220° Southwest 475 547 32,000  Level Washington Center
11:40AM 38.5072 -74.9947 219° Southwest 470 541 32,000  Level Washington Center
11:41AM 38.4056 -75.1042 220° Southwest 470 541 32,000  Level Washington Center
11:42AM 38.3100 -75.2133 222° Southwest 470 541 32,000 -60 Level Washington Center
11:43AM 38.2083 -75.3142 218° Southwest 470 541 31,900  Descending Washington Center
11:44AM 38.1061 -75.4175 219° Southwest 475 547 32,000  Climbing Washington Center
11:45AM 38.0147 -75.5286 224° Southwest 466 536 32,000 -60 Level Washington Center
11:46AM 37.9311 -75.6522 229° Southwest 461 531 31,900  Descending Washington Center
11:47AM 37.8478 -75.7706 228° Southwest 461 531 32,000  Climbing Washington Center
11:48AM 37.7639 -75.8964 230° Southwest 461 531 31,900 60 Descending Washington Center
11:49AM 37.6803 -76.0194 229° Southwest 461 531 32,200 480 Climbing Washington Center
11:50AM 37.5756 -76.1158 216° Southwest 466 536 32,900 660 Climbing Washington Center
11:51AM 37.4647 -76.1831 206° Southwest 473 544 33,600 540 Climbing Washington Center
11:52AM 37.3453 -76.2658 209° Southwest 483 556 34,000 180 Climbing Washington Center
11:53AM 37.2239 -76.3456 208° Southwest 494 568 34,000  Level Washington Center
11:54AM 37.1044 -76.4278 209° Southwest 494 568 34,000  Level Washington Center
11:55AM 36.9850 -76.5044 207° Southwest 494 568 34,000  Level Washington Center
11:56AM 36.8656 -76.5889 209° Southwest 494 568 34,000  Level Washington Center
11:57AM 36.7439 -76.6675 207° Southwest 494 568 34,000  Level Washington Center
11:58AM 36.6114 -76.7564 208° Southwest 494 568 34,000  Level Washington Center
11:59AM 36.5022 -76.8297 208° Southwest 494 568 34,000  Level Washington Center
12:00PM 36.3719 -76.9153 208° Southwest 494 568 34,000  Level Washington Center
12:01PM 36.2500 -76.9931 207° Southwest 494 568 34,000 -60 Level Washington Center
12:02PM 36.1281 -77.0733 208° Southwest 494 568 33,900  Descending Washington Center
12:03PM 36.0144 -77.1481 208° Southwest 494 568 34,000  Climbing Washington Center
12:04PM 35.8903 -77.2278 207° Southwest 488 562 34,000  Level Washington Center
12:05PM 35.7681 -77.3097 209° Southwest 494 568 34,000  Level Washington Center
12:06PM 35.6458 -77.3914 209° Southwest 500 575 34,000  Level Washington Center
12:07PM 35.5358 -77.4961 218° Southwest 500 575 34,000  Level Washington Center
12:08PM 35.4297 -77.6008 219° Southwest 500 575 34,000  Level Washington Center
12:09PM 35.3214 -77.7100 219° Southwest 500 575 34,000  Level Washington Center
12:10PM 35.2131 -77.8164 219° Southwest 506 582 34,000  Level Washington Center
12:11PM 35.1047 -77.9228 219° Southwest 506 582 34,000  Level Washington Center
12:12PM 34.9961 -78.0286 219° Southwest 506 582 34,000  Level Washington Center
12:14PM 34.7831 -78.2367 219° Southwest 493 567 34,000  Level Jacksonville Center
12:15PM 34.6889 -78.3403 222° Southwest 500 575 34,000  Level Jacksonville Center
12:16PM 34.5636 -78.4553 217° Southwest 515 593 34,000  Level Jacksonville Center
12:17PM 34.4650 -78.5561 220° Southwest 520 598 34,000 -60 Level Jacksonville Center
12:18PM 34.3417 -78.6753 219° Southwest 527 606 33,900 -60 Descending Jacksonville Center
12:19PM 34.2325 -78.7811 219° Southwest 527 606 33,900  Level Jacksonville Center
12:20PM 34.1233 -78.8867 219° Southwest 522 601 34,000  Climbing Jacksonville Center
12:21PM 34.0100 -78.9944 218° Southwest 522 601 34,000  Level Jacksonville Center
12:22PM 33.9003 -79.0994 218° Southwest 522 601 34,000  Level Jacksonville Center
12:23PM 33.7908 -79.2017 218° Southwest 522 601 34,000  Level Jacksonville Center
12:24PM 33.6994 -79.2878 218° Southwest 514 592 34,000  Level Jacksonville Center
12:25PM 33.5894 -79.3897 218° Southwest 502 578 34,000  Level Jacksonville Center
12:26PM 33.4839 -79.4933 219° Southwest 502 578 34,000 -60 Level Jacksonville Center
12:27PM 33.3739 -79.5944 218° Southwest 502 578 33,900 -60 Descending Jacksonville Center
12:28PM 33.2658 -79.6981 219° Southwest 502 578 33,900  Level Jacksonville Center
12:29PM 33.1578 -79.7961 217° Southwest 502 578 34,000  Climbing Jacksonville Center
12:30PM 33.0475 -79.8989 218° Southwest 497 572 34,000  Level Jacksonville Center
12:31PM 32.9269 -80.0094 218° Southwest 497 572 34,000  Level Jacksonville Center
12:32PM 32.8142 -80.1019 215° Southwest 497 572 34,000  Level Jacksonville Center
12:33PM 32.7011 -80.1844 212° Southwest 497 572 34,000  Level Jacksonville Center
12:34PM 32.5861 -80.2717 213° Southwest 497 572 34,000  Level Jacksonville Center
12:35PM 32.4689 -80.3564 211° Southwest 497 572 34,000  Level Jacksonville Center
12:36PM 32.3558 -80.4383 211° Southwest 492 566 34,000  Level Jacksonville Center
12:37PM 32.2425 -80.5222 212° Southwest 486 559 34,000  Level Jacksonville Center
12:38PM 32.1436 -80.5961 212° Southwest 486 559 34,000  Level Jacksonville Center
12:39PM 32.0200 -80.6850 211° Southwest 486 559 34,000  Level Jacksonville Center
12:40PM 31.9044 -80.7683 211° Southwest 486 559 34,000  Level Jacksonville Center
12:41PM 31.8033 -80.8392 211° Southwest 486 559 34,000  Level Jacksonville Center
12:42PM 31.6794 -80.9250 211° Southwest 481 554 34,000  Level Jacksonville Center
12:43PM 31.5700 -81.0053 212° Southwest 481 554 34,000  Level Jacksonville Center
12:44PM 31.4644 -81.0781 210° Southwest 481 554 34,000 -60 Level Jacksonville Center
12:45PM 31.3383 -81.1656 211° Southwest 479 551 33,900  Descending Jacksonville Center
12:46PM 31.2069 -81.1703 182° South 473 544 34,000  Climbing Jacksonville Center
12:47PM 31.0900 -81.1725 181° South 478 550 34,000  Level Jacksonville Center
12:48PM 30.9542 -81.1678 178° South 478 550 34,000  Level Jacksonville Center
12:49PM 30.8247 -81.1628 178° South 478 550 34,000  Level Jacksonville Center
12:50PM 30.6869 -81.1558 178° South 483 556 34,000 -600 Level Jacksonville Center
12:51PM 30.5553 -81.1533 179° South 483 556 32,800 -1,380 Descending Jacksonville Center
12:52PM 30.4194 -81.1486 178° South 483 556 31,300 -1,500 Descending Jacksonville Center
12:53PM 30.2858 -81.1436 178° South 483 556 29,900 -1,380 Descending Jacksonville Center
12:54PM 30.1564 -81.1414 179° South 476 548 28,600 -1,200 Descending Jacksonville Center
12:55PM 30.0269 -81.1364 178° South 471 542 27,500 -1,140 Descending Jacksonville Center
12:56PM 29.8975 -81.1339 179° South 471 542 26,400 -1,500 Descending Jacksonville Center
12:57PM 29.7764 -81.1314 179° South 457 526 24,500 -1,980 Descending Jacksonville Center
12:58PM 29.6572 -81.1264 178° South 445 512 22,500 -1,980 Descending Jacksonville Center
12:59PM 29.5444 -81.1261 180° South 424 488 20,600 -1,980 Descending Jacksonville Center
01:00PM 29.4253 -81.1186 177° South 393 452 18,600 -1,860 Descending Jacksonville Center
01:01PM 29.3231 -81.1181 180° South 378 435 16,900 -1,800 Descending Jacksonville Center
01:02PM 29.2247 -81.1081 175° South 361 415 15,100 -1,800 Descending Jacksonville Center
01:03PM 29.1289 -81.1025 177° South 354 407 13,300 -1,500 Descending Jacksonville Center
01:04PM 29.0328 -81.0972 177° South 339 390 12,100 -900 Descending Jacksonville Center
01:05PM 28.9469 -81.0869 174° South 326 375 11,500 -1,200 Descending Jacksonville Center
01:06PM 28.8611 -81.0767 174° South 316 364 9,700 -1,560 Descending Jacksonville Center
01:07PM 28.7833 -81.0667 174° South 287 330 8,600 -1,140 Descending Orlando TRACON
01:08PM 28.7333 -81.1000 210° Southwest 231 266 7,600 -1,140 Descending Orlando TRACON
01:09PM 28.7167 -81.1833 257° West 229 264 6,400 -1,080 Descending Orlando TRACON
01:10PM 28.7167 -81.2333 270° West 208 239 5,600 -1,200 Descending Orlando TRACON
01:11PM 28.7000 -81.3000 254° West 204 235 4,100 -840 Descending Orlando TRACON
01:12PM 28.6500 -81.2833 164° South 208 239 4,000 -120 Descending Orlando TRACON